Flugplatz Ahrenlohe (EDHO)

Hier findest Du alle Informationen zum Flugplatz Ahrenlohe (EDHO).

Informationen für Piloten zum Flugplatz Ahrenlohe

Hier findest Du alle relevanten Informationen, die Du als Pilot benötigst, um Ahrenlohe anzufliegen.

Flugplatz: Ahrenlohe ICAO-Code: EDHO
Frequenz Turm: 122,600 Mhz GAFOR Gebiet: 3
Frequenz Ground: 122,600 Mhz Mogas: nein
Platzrunde: SE 1000 ft Landegebühr: -
Platzhöhe: - Sunrise: 02:53 Uhr UTC
Pisten: 05/23 - 500 m x 15 m, ASPH Sunset: 19:44 Uhr UTC

Flugwetter am Flugplatz Ahrenlohe

Die METAR Information stammen aus EDDH (18.06 km entfernt).

METAR Code:
2020/05/27 15:50
EDDH 271550Z 32012KT 9999 SCT035 18/10 Q1031 NOSIG

Temperatur: 10,1 °C Niederschlag: - Wind: 2,9 kt
Temperatur (min.): 8,3 °C Luftdruck: 1022 hPa Windrichtung: 60 °
Temperatur (max.): 13,0 °C Luftfeuchtigkeit: 71 % Bewölkung: 8/8

Flugschulen am Flugplatz Ahrenlohe

Am Flugplatz Ahrenlohe gibt es leider keine Flugschule.

Benachbarte Flugplätze und Flugschulen

Es gibt 9 weitere Flugplätze in einem Umkreis von 50 km um den Flugplatz Ahrenlohe.

Jetzt anmelden

Passwort vergessen

Umfrage Archiv

Wären Rettungsgeräte keine Pflicht mehr, würdet Ihr Euer UL trotzdem mit einem ausstatten?

Ja
80.6 %
Nein
19.4 %
Stimmen: 124 | Diskussion
Anzeige: Roland Aircraft
Statistik Alle Mitglieder

Aktuell sind 39 Besucher online.

Anzeige: VFR Sprechfunk Simulator


Anzeige: Pocket FMS